Terminal Aerodrome Forecast
Issued by NWS

Home | Current Version | Previous Version | Text Only | Print | Product List | Glossary On
Versions: 1 2 3 4 5 6 7 8 9 10 11 12 13 14 15 16 17
349
FTUS46 KSEW 062320
TAFHQM
TAF
KHQM 062320Z 0700/0724 26013KT P6SM SKC
     FM070500 28005KT P6SM SKC
     FM070900 29006KT P6SM SCT012
     FM071100 24008KT 5SM BR OVC012
      TEMPO 0712/0716 3SM BR
     FM071800 25015KT 5SM BR BKN018 OVC025
     FM072100 27015KT P6SM OVC025=

USA.gov is the U.S. government's official web portal to all federal, state and local government web resources and services.